TimePST,TemperatureF,Dew PointF,Humidity,Sea Level PressureIn,VisibilityMPH,Wind Direction,Wind SpeedMPH,Gust SpeedMPH,PrecipitationIn,Events,Conditions,WindDirDegrees,DateUTC
12:11 AM,48.2,46.4,93,29.66,10.0,East,3.5,-,N/A,,Overcast,80,2012-11-20 08:11:00
12:31 AM,50.0,48.2,94,29.66,10.0,ESE,8.1,-,N/A,,Mostly Cloudy,120,2012-11-20 08:31:00
12:53 AM,50.0,48.0,93,29.67,10.0,ESE,6.9,-,N/A,,Overcast,120,2012-11-20 08:53:00
1:53 AM,48.9,48.0,97,29.66,10.0,East,5.8,-,N/A,,Overcast,80,2012-11-20 09:53:00
2:46 AM,48.2,48.2,100,29.65,7.0,ENE,6.9,-,0.04,,Overcast,70,2012-11-20 10:46:00
2:53 AM,48.9,46.9,93,29.66,6.0,East,8.1,-,0.04,,Overcast,80,2012-11-20 10:53:00
3:14 AM,50.0,46.4,87,29.64,10.0,ESE,8.1,-,N/A,,Overcast,120,2012-11-20 11:14:00
3:53 AM,48.9,46.9,93,29.65,10.0,East,8.1,-,N/A,,Overcast,90,2012-11-20 11:53:00
4:33 AM,48.2,46.4,93,29.63,10.0,East,9.2,-,0.00,,Mostly Cloudy,90,2012-11-20 12:33:00
4:44 AM,48.2,46.4,93,29.62,10.0,East,9.2,-,0.00,,Mostly Cloudy,80,2012-11-20 12:44:00
4:53 AM,48.0,46.0,93,29.63,10.0,ENE,9.2,-,0.00,,Mostly Cloudy,70,2012-11-20 12:53:00
5:53 AM,46.9,45.0,93,29.61,7.0,ENE,9.2,-,N/A,,Partly Cloudy,60,2012-11-20 13:53:00
6:53 AM,46.0,45.0,96,29.58,10.0,ENE,11.5,-,N/A,,Clear,60,2012-11-20 14:53:00
7:53 AM,46.9,44.1,90,29.54,10.0,ENE,9.2,-,N/A,,Clear,60,2012-11-20 15:53:00
8:53 AM,48.9,45.0,86,29.50,10.0,ENE,15.0,-,N/A,,Overcast,60,2012-11-20 16:53:00
9:53 AM,48.0,46.0,93,29.50,5.0,ENE,15.0,-,0.05,Rain,Light Rain,70,2012-11-20 17:53:00
10:53 AM,50.0,46.0,86,29.51,10.0,ESE,17.3,29.9,0.01,Rain,Light Rain,120,2012-11-20 18:53:00
11:37 AM,48.2,44.6,87,29.54,2.5,South,34.5,43.7,0.12,Rain,Rain,190,2012-11-20 19:37:00
11:42 AM,46.4,42.8,87,29.53,1.2,South,28.8,43.7,0.15,Rain,Heavy Rain,170,2012-11-20 19:42:00
11:47 AM,48.2,44.6,87,29.52,2.5,South,24.2,40.3,0.16,Rain,Light Rain,180,2012-11-20 19:47:00
11:53 AM,48.9,44.1,83,29.54,8.0,South,23.0,34.5,0.16,Rain,Light Rain,180,2012-11-20 19:53:00
12:53 PM,52.0,45.0,77,29.57,10.0,South,25.3,35.7,0.00,,Scattered Clouds,190,2012-11-20 20:53:00
1:53 PM,51.1,45.0,80,29.59,10.0,SSW,20.7,27.6,N/A,,Partly Cloudy,200,2012-11-20 21:53:00
2:53 PM,51.1,45.0,80,29.61,10.0,South,13.8,-,N/A,,Mostly Cloudy,180,2012-11-20 22:53:00
3:53 PM,50.0,44.1,80,29.62,6.0,SSE,27.6,32.2,0.02,Rain,Light Rain,160,2012-11-20 23:53:00
4:53 PM,50.0,43.0,77,29.63,10.0,SSW,21.9,28.8,0.02,,Overcast,200,2012-11-21 00:53:00
5:53 PM,48.0,43.0,83,29.65,10.0,SSE,6.9,-,N/A,,Scattered Clouds,160,2012-11-21 01:53:00
6:53 PM,48.0,44.1,86,29.65,10.0,SSE,3.5,-,N/A,,Mostly Cloudy,150,2012-11-21 02:53:00
7:35 PM,46.4,44.6,93,29.62,10.0,NNE,3.5,-,N/A,,Overcast,20,2012-11-21 03:35:00
7:53 PM,46.9,44.1,90,29.62,10.0,NNE,5.8,-,N/A,,Mostly Cloudy,30,2012-11-21 03:53:00
8:53 PM,46.9,44.1,90,29.61,10.0,ENE,8.1,-,N/A,,Overcast,70,2012-11-21 04:53:00
9:53 PM,48.0,44.1,86,29.60,10.0,East,9.2,-,0.02,,Overcast,100,2012-11-21 05:53:00
10:53 PM,46.0,41.0,83,29.58,10.0,SE,9.2,-,0.03,Rain,Light Rain,140,2012-11-21 06:53:00
11:53 PM,44.1,42.1,93,29.56,5.0,ENE,4.6,-,0.17,Rain,Rain,70,2012-11-21 07:53:00